sensor_id;sensor_type;location;lat;lon;timestamp;pressure;altitude;pressure_sealevel;temperature;humidity
65190;BME280;51777;53.570;9.984;2023-04-25T00:01:58;100182.59;;;7.97;100.00
65190;BME280;51777;53.570;9.984;2023-04-25T00:04:25;100189.09;;;8.01;100.00
65190;BME280;51777;53.570;9.984;2023-04-25T00:06:55;100189.88;;;8.02;100.00
65190;BME280;51777;53.570;9.984;2023-04-25T00:09:21;100195.97;;;8.10;100.00
65190;BME280;51777;53.570;9.984;2023-04-25T00:11:47;100199.63;;;8.08;100.00
65190;BME280;51777;53.570;9.984;2023-04-25T00:14:12;100195.03;;;8.02;100.00
65190;BME280;51777;53.570;9.984;2023-04-25T00:16:38;100199.81;;;7.97;100.00
65190;BME280;51777;53.570;9.984;2023-04-25T00:19:04;100203.19;;;7.97;100.00
65190;BME280;51777;53.570;9.984;2023-04-25T00:21:30;100196.00;;;8.01;100.00
65190;BME280;51777;53.570;9.984;2023-04-25T00:23:57;100203.28;;;8.05;100.00
65190;BME280;51777;53.570;9.984;2023-04-25T00:26:22;100206.25;;;8.10;100.00
65190;BME280;51777;53.570;9.984;2023-04-25T00:28:48;100204.88;;;8.16;100.00
65190;BME280;51777;53.570;9.984;2023-04-25T00:31:14;100212.72;;;8.14;100.00
65190;BME280;51777;53.570;9.984;2023-04-25T00:33:39;100215.97;;;8.16;100.00
65190;BME280;51777;53.570;9.984;2023-04-25T00:36:05;100212.59;;;8.16;100.00
65190;BME280;51777;53.570;9.984;2023-04-25T00:38:31;100213.97;;;8.10;100.00
65190;BME280;51777;53.570;9.984;2023-04-25T00:40:56;100219.66;;;8.14;100.00
65190;BME280;51777;53.570;9.984;2023-04-25T00:43:25;100225.63;;;8.05;100.00
65190;BME280;51777;53.570;9.984;2023-04-25T00:45:51;100233.50;;;8.03;100.00
65190;BME280;51777;53.570;9.984;2023-04-25T00:48:17;100226.06;;;8.00;100.00
65190;BME280;51777;53.570;9.984;2023-04-25T00:50:52;100233.13;;;7.98;100.00
65190;BME280;51777;53.570;9.984;2023-04-25T00:53:18;100239.66;;;7.92;100.00
65190;BME280;51777;53.570;9.984;2023-04-25T00:55:44;100228.00;;;7.98;100.00
65190;BME280;51777;53.570;9.984;2023-04-25T00:58:09;100233.94;;;7.99;100.00
65190;BME280;51777;53.570;9.984;2023-04-25T01:00:35;100230.44;;;7.90;100.00
65190;BME280;51777;53.570;9.984;2023-04-25T01:03:01;100231.53;;;7.87;100.00
65190;BME280;51777;53.570;9.984;2023-04-25T01:05:29;100233.44;;;7.85;100.00
65190;BME280;51777;53.570;9.984;2023-04-25T01:07:54;100238.44;;;7.87;100.00
65190;BME280;51777;53.570;9.984;2023-04-25T01:10:19;100228.81;;;7.89;100.00
65190;BME280;51777;53.570;9.984;2023-04-25T01:12:45;100239.84;;;7.81;100.00
65190;BME280;51777;53.570;9.984;2023-04-25T01:15:10;100232.53;;;7.77;100.00
65190;BME280;51777;53.570;9.984;2023-04-25T01:17:36;100240.66;;;7.82;100.00
65190;BME280;51777;53.570;9.984;2023-04-25T01:20:06;100231.56;;;7.78;100.00
65190;BME280;51777;53.570;9.984;2023-04-25T01:22:33;100237.13;;;7.83;100.00
65190;BME280;51777;53.570;9.984;2023-04-25T01:24:59;100238.47;;;7.77;100.00
65190;BME280;51777;53.570;9.984;2023-04-25T01:27:25;100241.06;;;7.77;100.00
65190;BME280;51777;53.570;9.984;2023-04-25T01:29:51;100238.34;;;7.79;100.00
65190;BME280;51777;53.570;9.984;2023-04-25T01:32:17;100234.53;;;7.83;100.00
65190;BME280;51777;53.570;9.984;2023-04-25T01:34:43;100241.06;;;7.68;100.00
65190;BME280;51777;53.570;9.984;2023-04-25T01:37:08;100240.41;;;7.65;100.00
65190;BME280;51777;53.570;9.984;2023-04-25T01:39:34;100245.97;;;7.71;100.00
65190;BME280;51777;53.570;9.984;2023-04-25T01:42:00;100249.63;;;7.58;100.00
65190;BME280;51777;53.570;9.984;2023-04-25T01:44:26;100250.31;;;7.60;100.00
65190;BME280;51777;53.570;9.984;2023-04-25T01:46:52;100249.75;;;7.66;100.00
65190;BME280;51777;53.570;9.984;2023-04-25T01:49:17;100249.63;;;7.58;100.00
65190;BME280;51777;53.570;9.984;2023-04-25T01:51:43;100258.16;;;7.59;100.00
65190;BME280;51777;53.570;9.984;2023-04-25T01:54:10;100264.78;;;7.61;100.00
65190;BME280;51777;53.570;9.984;2023-04-25T01:56:37;100256.94;;;7.63;100.00
65190;BME280;51777;53.570;9.984;2023-04-25T01:59:04;100259.50;;;7.63;100.00
65190;BME280;51777;53.570;9.984;2023-04-25T02:01:29;100267.06;;;7.64;100.00
65190;BME280;51777;53.570;9.984;2023-04-25T02:03:55;100268.84;;;7.54;100.00
65190;BME280;51777;53.570;9.984;2023-04-25T02:06:20;100273.06;;;7.46;100.00
65190;BME280;51777;53.570;9.984;2023-04-25T02:08:46;100275.38;;;7.49;100.00
65190;BME280;51777;53.570;9.984;2023-04-25T02:11:11;100274.03;;;7.45;100.00
65190;BME280;51777;53.570;9.984;2023-04-25T02:13:37;100277.00;;;7.50;100.00
65190;BME280;51777;53.570;9.984;2023-04-25T02:16:02;100279.13;;;7.54;100.00
65190;BME280;51777;53.570;9.984;2023-04-25T02:18:28;100283.75;;;7.60;100.00
65190;BME280;51777;53.570;9.984;2023-04-25T02:20:53;100291.09;;;7.46;100.00
65190;BME280;51777;53.570;9.984;2023-04-25T02:23:19;100286.31;;;7.41;100.00
65190;BME280;51777;53.570;9.984;2023-04-25T02:25:44;100288.91;;;7.41;100.00
65190;BME280;51777;53.570;9.984;2023-04-25T02:28:10;100292.03;;;7.45;100.00
65190;BME280;51777;53.570;9.984;2023-04-25T02:30:36;100286.59;;;7.48;100.00
65190;BME280;51777;53.570;9.984;2023-04-25T02:33:02;100284.84;;;7.29;100.00
65190;BME280;51777;53.570;9.984;2023-04-25T02:35:27;100280.50;;;7.29;100.00
65190;BME280;51777;53.570;9.984;2023-04-25T02:37:53;100284.97;;;7.18;100.00
65190;BME280;51777;53.570;9.984;2023-04-25T02:40:18;100288.25;;;7.20;100.00
65190;BME280;51777;53.570;9.984;2023-04-25T02:42:44;100288.34;;;7.18;100.00
65190;BME280;51777;53.570;9.984;2023-04-25T02:45:11;100285.41;;;7.23;100.00
65190;BME280;51777;53.570;9.984;2023-04-25T02:47:36;100282.28;;;7.29;100.00
65190;BME280;51777;53.570;9.984;2023-04-25T02:50:02;100280.25;;;7.23;100.00
65190;BME280;51777;53.570;9.984;2023-04-25T02:52:27;100290.81;;;7.20;100.00
65190;BME280;51777;53.570;9.984;2023-04-25T02:54:52;100298.91;;;7.25;100.00
65190;BME280;51777;53.570;9.984;2023-04-25T02:57:18;100291.72;;;7.19;100.00
65190;BME280;51777;53.570;9.984;2023-04-25T02:59:43;100290.81;;;7.20;100.00
65190;BME280;51777;53.570;9.984;2023-04-25T03:02:09;100287.81;;;7.24;100.00
65190;BME280;51777;53.570;9.984;2023-04-25T03:04:34;100293.38;;;7.20;100.00
65190;BME280;51777;53.570;9.984;2023-04-25T03:07:00;100293.63;;;7.17;100.00
65190;BME280;51777;53.570;9.984;2023-04-25T03:09:26;100285.25;;;7.15;100.00
65190;BME280;51777;53.570;9.984;2023-04-25T03:11:51;100290.38;;;7.15;100.00
65190;BME280;51777;53.570;9.984;2023-04-25T03:14:17;100294.03;;;7.12;100.00
65190;BME280;51777;53.570;9.984;2023-04-25T03:16:42;100304.44;;;7.01;100.00
65190;BME280;51777;53.570;9.984;2023-04-25T03:19:08;100304.72;;;6.98;100.00
65190;BME280;51777;53.570;9.984;2023-04-25T03:21:35;100299.97;;;6.84;100.00
65190;BME280;51777;53.570;9.984;2023-04-25T03:24:02;100303.72;;;6.70;100.00
65190;BME280;51777;53.570;9.984;2023-04-25T03:26:28;100313.44;;;6.66;100.00
65190;BME280;51777;53.570;9.984;2023-04-25T03:28:53;100307.47;;;6.66;100.00
65190;BME280;51777;53.570;9.984;2023-04-25T03:31:19;100314.50;;;6.64;100.00
65190;BME280;51777;53.570;9.984;2023-04-25T03:33:44;100305.31;;;6.61;100.00
65190;BME280;51777;53.570;9.984;2023-04-25T03:36:10;100314.47;;;6.54;100.00
65190;BME280;51777;53.570;9.984;2023-04-25T03:38:35;100315.00;;;6.48;100.00
65190;BME280;51777;53.570;9.984;2023-04-25T03:41:01;100319.56;;;6.44;100.00
65190;BME280;51777;53.570;9.984;2023-04-25T03:43:27;100311.97;;;6.43;100.00
65190;BME280;51777;53.570;9.984;2023-04-25T03:45:52;100317.25;;;6.41;100.00
65190;BME280;51777;53.570;9.984;2023-04-25T03:48:18;100320.63;;;6.42;100.00
65190;BME280;51777;53.570;9.984;2023-04-25T03:50:46;100325.16;;;6.29;100.00
65190;BME280;51777;53.570;9.984;2023-04-25T03:53:12;100328.72;;;6.37;100.00
65190;BME280;51777;53.570;9.984;2023-04-25T03:55:37;100328.88;;;6.36;100.00
65190;BME280;51777;53.570;9.984;2023-04-25T03:58:03;100331.56;;;6.34;100.00
65190;BME280;51777;53.570;9.984;2023-04-25T04:00:28;100326.44;;;6.34;100.00
65190;BME280;51777;53.570;9.984;2023-04-25T04:02:53;100340.09;;;6.35;100.00
65190;BME280;51777;53.570;9.984;2023-04-25T04:05:19;100343.00;;;6.30;100.00
65190;BME280;51777;53.570;9.984;2023-04-25T04:07:44;100343.28;;;6.27;100.00
65190;BME280;51777;53.570;9.984;2023-04-25T04:10:10;100339.28;;;6.34;100.00
65190;BME280;51777;53.570;9.984;2023-04-25T04:12:36;100351.91;;;6.26;100.00
65190;BME280;51777;53.570;9.984;2023-04-25T04:15:03;100355.31;;;6.27;100.00
65190;BME280;51777;53.570;9.984;2023-04-25T04:17:30;100350.03;;;6.28;100.00
65190;BME280;51777;53.570;9.984;2023-04-25T04:19:56;100360.69;;;6.24;100.00
65190;BME280;51777;53.570;9.984;2023-04-25T04:22:22;100362.19;;;6.26;100.00
65190;BME280;51777;53.570;9.984;2023-04-25T04:24:48;100363.53;;;6.21;100.00
65190;BME280;51777;53.570;9.984;2023-04-25T04:27:15;100366.44;;;6.16;100.00
65190;BME280;51777;53.570;9.984;2023-04-25T04:29:42;100365.75;;;6.14;100.00
65190;BME280;51777;53.570;9.984;2023-04-25T04:32:08;100371.03;;;6.12;100.00
65190;BME280;51777;53.570;9.984;2023-04-25T04:34:34;100370.03;;;6.04;100.00
65190;BME280;51777;53.570;9.984;2023-04-25T04:37:00;100372.50;;;5.94;100.00
65190;BME280;51777;53.570;9.984;2023-04-25T04:39:25;100372.41;;;5.96;100.00
65190;BME280;51777;53.570;9.984;2023-04-25T04:41:51;100372.66;;;6.13;100.00
65190;BME280;51777;53.570;9.984;2023-04-25T04:44:16;100378.34;;;6.17;100.00
65190;BME280;51777;53.570;9.984;2023-04-25T04:46:42;100391.50;;;6.24;100.00
65190;BME280;51777;53.570;9.984;2023-04-25T04:49:09;100385.28;;;6.26;100.00
65190;BME280;51777;53.570;9.984;2023-04-25T04:51:34;100385.03;;;6.29;100.00
65190;BME280;51777;53.570;9.984;2023-04-25T04:54:04;100385.78;;;6.41;100.00
65190;BME280;51777;53.570;9.984;2023-04-25T04:56:29;100384.47;;;6.46;100.00
65190;BME280;51777;53.570;9.984;2023-04-25T04:58:59;100386.59;;;6.41;100.00
65190;BME280;51777;53.570;9.984;2023-04-25T05:01:25;100381.63;;;6.50;100.00
65190;BME280;51777;53.570;9.984;2023-04-25T05:03:51;100386.38;;;6.54;100.00
65190;BME280;51777;53.570;9.984;2023-04-25T05:06:18;100398.53;;;6.52;100.00
65190;BME280;51777;53.570;9.984;2023-04-25T05:08:43;100405.84;;;6.57;100.00
65190;BME280;51777;53.570;9.984;2023-04-25T05:11:09;100400.31;;;6.31;100.00
65190;BME280;51777;53.570;9.984;2023-04-25T05:13:35;100419.84;;;6.43;100.00
65190;BME280;51777;53.570;9.984;2023-04-25T05:16:00;100428.28;;;6.55;100.00
65190;BME280;51777;53.570;9.984;2023-04-25T05:18:25;100431.38;;;6.48;100.00
65190;BME280;51777;53.570;9.984;2023-04-25T05:20:51;100411.19;;;6.44;100.00
65190;BME280;51777;53.570;9.984;2023-04-25T05:23:16;100422.06;;;6.57;100.00
65190;BME280;51777;53.570;9.984;2023-04-25T05:25:42;100424.56;;;6.68;100.00
65190;BME280;51777;53.570;9.984;2023-04-25T05:28:07;100421.91;;;6.70;100.00
65190;BME280;51777;53.570;9.984;2023-04-25T05:30:34;100436.53;;;6.79;100.00
65190;BME280;51777;53.570;9.984;2023-04-25T05:32:59;100438.63;;;6.64;100.00
65190;BME280;51777;53.570;9.984;2023-04-25T05:35:28;100432.16;;;6.70;100.00
65190;BME280;51777;53.570;9.984;2023-04-25T05:37:54;100438.06;;;6.61;100.00
65190;BME280;51777;53.570;9.984;2023-04-25T05:40:20;100445.50;;;6.64;100.00
65190;BME280;51777;53.570;9.984;2023-04-25T05:42:48;100442.53;;;6.59;100.00
65190;BME280;51777;53.570;9.984;2023-04-25T05:45:14;100447.28;;;6.63;100.00
65190;BME280;51777;53.570;9.984;2023-04-25T05:47:39;100445.19;;;6.57;100.00
65190;BME280;51777;53.570;9.984;2023-04-25T05:50:08;100449.44;;;6.68;100.00
65190;BME280;51777;53.570;9.984;2023-04-25T05:52:37;100445.03;;;6.70;100.00
65190;BME280;51777;53.570;9.984;2023-04-25T05:55:04;100440.47;;;6.83;100.00
65190;BME280;51777;53.570;9.984;2023-04-25T05:57:29;100445.38;;;6.65;100.00
65190;BME280;51777;53.570;9.984;2023-04-25T05:59:57;100448.56;;;6.78;100.00
65190;BME280;51777;53.570;9.984;2023-04-25T06:02:22;100463.34;;;6.86;100.00
65190;BME280;51777;53.570;9.984;2023-04-25T06:04:50;100449.38;;;6.79;100.00
65190;BME280;51777;53.570;9.984;2023-04-25T06:07:16;100455.91;;;6.83;100.00
65190;BME280;51777;53.570;9.984;2023-04-25T06:09:43;100453.47;;;6.91;100.00
65190;BME280;51777;53.570;9.984;2023-04-25T06:12:11;100452.13;;;6.87;100.00
65190;BME280;51777;53.570;9.984;2023-04-25T06:14:36;100456.41;;;7.17;100.00
65190;BME280;51777;53.570;9.984;2023-04-25T06:17:03;100459.97;;;7.26;100.00
65190;BME280;51777;53.570;9.984;2023-04-25T06:19:35;100456.19;;;7.30;100.00
65190;BME280;51777;53.570;9.984;2023-04-25T06:22:01;100468.09;;;7.21;100.00
65190;BME280;51777;53.570;9.984;2023-04-25T06:24:26;100463.75;;;7.22;100.00
65190;BME280;51777;53.570;9.984;2023-04-25T06:26:52;100467.09;;;7.13;100.00
65190;BME280;51777;53.570;9.984;2023-04-25T06:29:18;100466.97;;;7.14;100.00
65190;BME280;51777;53.570;9.984;2023-04-25T06:31:44;100465.06;;;7.16;100.00
65190;BME280;51777;53.570;9.984;2023-04-25T06:34:09;100471.72;;;7.19;100.00
65190;BME280;51777;53.570;9.984;2023-04-25T06:36:35;100470.22;;;7.16;100.00
65190;BME280;51777;53.570;9.984;2023-04-25T06:39:00;100469.81;;;7.11;100.00
65190;BME280;51777;53.570;9.984;2023-04-25T06:41:26;100470.19;;;7.47;100.00
65190;BME280;51777;53.570;9.984;2023-04-25T06:43:51;100482.66;;;7.61;100.00
65190;BME280;51777;53.570;9.984;2023-04-25T06:46:17;100482.63;;;7.42;100.00
65190;BME280;51777;53.570;9.984;2023-04-25T06:48:43;100474.53;;;7.65;100.00
65190;BME280;51777;53.570;9.984;2023-04-25T06:51:08;100477.38;;;7.62;100.00
65190;BME280;51777;53.570;9.984;2023-04-25T06:53:34;100486.16;;;7.50;100.00
65190;BME280;51777;53.570;9.984;2023-04-25T06:56:00;100480.03;;;7.42;100.00
65190;BME280;51777;53.570;9.984;2023-04-25T06:58:25;100483.03;;;7.56;100.00
65190;BME280;51777;53.570;9.984;2023-04-25T07:00:51;100484.13;;;7.54;100.00
65190;BME280;51777;53.570;9.984;2023-04-25T07:03:17;100488.78;;;7.70;100.00
65190;BME280;51777;53.570;9.984;2023-04-25T07:05:42;100489.59;;;7.89;100.00
65190;BME280;51777;53.570;9.984;2023-04-25T07:08:08;100500.19;;;8.15;100.00
65190;BME280;51777;53.570;9.984;2023-04-25T07:10:33;100499.53;;;8.42;100.00
65190;BME280;51777;53.570;9.984;2023-04-25T07:12:58;100492.22;;;8.38;100.00
65190;BME280;51777;53.570;9.984;2023-04-25T07:15:25;100501.28;;;8.22;100.00
65190;BME280;51777;53.570;9.984;2023-04-25T07:17:51;100500.75;;;8.48;100.00
65190;BME280;51777;53.570;9.984;2023-04-25T07:20:17;100501.03;;;8.45;100.00
65190;BME280;51777;53.570;9.984;2023-04-25T07:22:42;100496.03;;;8.43;100.00
65190;BME280;51777;53.570;9.984;2023-04-25T07:25:09;100504.53;;;8.15;100.00
65190;BME280;51777;53.570;9.984;2023-04-25T07:27:36;100522.16;;;8.19;100.00
65190;BME280;51777;53.570;9.984;2023-04-25T07:30:01;100524.31;;;8.14;100.00
65190;BME280;51777;53.570;9.984;2023-04-25T07:32:28;100518.63;;;8.11;100.00
65190;BME280;51777;53.570;9.984;2023-04-25T07:34:54;100525.94;;;8.15;100.00
65190;BME280;51777;53.570;9.984;2023-04-25T07:37:19;100524.47;;;8.22;100.00
65190;BME280;51777;53.570;9.984;2023-04-25T07:39:44;100518.75;;;8.29;100.00
65190;BME280;51777;53.570;9.984;2023-04-25T07:42:13;100509.16;;;8.40;100.00
65190;BME280;51777;53.570;9.984;2023-04-25T07:44:39;100511.72;;;8.50;100.00
65190;BME280;51777;53.570;9.984;2023-04-25T07:47:09;100519.03;;;8.64;100.00
65190;BME280;51777;53.570;9.984;2023-04-25T07:49:37;100515.91;;;8.70;100.00
65190;BME280;51777;53.570;9.984;2023-04-25T07:52:04;100514.09;;;9.27;100.00
65190;BME280;51777;53.570;9.984;2023-04-25T07:54:31;100525.28;;;9.73;100.00
65190;BME280;51777;53.570;9.984;2023-04-25T07:56:58;100519.78;;;9.58;100.00
65190;BME280;51777;53.570;9.984;2023-04-25T07:59:24;100521.50;;;9.40;100.00
65190;BME280;51777;53.570;9.984;2023-04-25T08:01:50;100529.56;;;9.55;100.00
65190;BME280;51777;53.570;9.984;2023-04-25T08:04:15;100545.94;;;9.91;100.00
65190;BME280;51777;53.570;9.984;2023-04-25T08:06:42;100557.28;;;10.08;100.00
65190;BME280;51777;53.570;9.984;2023-04-25T08:09:08;100548.47;;;10.00;100.00
65190;BME280;51777;53.570;9.984;2023-04-25T08:11:35;100549.63;;;9.88;100.00
65190;BME280;51777;53.570;9.984;2023-04-25T08:14:02;100552.25;;;9.79;100.00
65190;BME280;51777;53.570;9.984;2023-04-25T08:16:29;100545.81;;;9.65;100.00
65190;BME280;51777;53.570;9.984;2023-04-25T08:18:55;100555.13;;;9.58;100.00
65190;BME280;51777;53.570;9.984;2023-04-25T08:21:20;100547.84;;;9.71;100.00
65190;BME280;51777;53.570;9.984;2023-04-25T08:23:46;100559.53;;;9.65;100.00
65190;BME280;51777;53.570;9.984;2023-04-25T08:26:11;100555.00;;;9.77;100.00
65190;BME280;51777;53.570;9.984;2023-04-25T08:28:37;100553.06;;;11.12;100.00
65190;BME280;51777;53.570;9.984;2023-04-25T08:31:02;100556.97;;;11.50;100.00
65190;BME280;51777;53.570;9.984;2023-04-25T08:33:28;100568.66;;;13.18;100.00
65190;BME280;51777;53.570;9.984;2023-04-25T08:35:54;100559.00;;;11.72;100.00
65190;BME280;51777;53.570;9.984;2023-04-25T08:38:19;100569.84;;;11.34;100.00
65190;BME280;51777;53.570;9.984;2023-04-25T08:40:49;100575.25;;;10.45;100.00
65190;BME280;51777;53.570;9.984;2023-04-25T08:43:18;100584.13;;;10.42;100.00
65190;BME280;51777;53.570;9.984;2023-04-25T08:45:44;100592.88;;;10.04;100.00
65190;BME280;51777;53.570;9.984;2023-04-25T08:48:12;100590.22;;;10.23;100.00
65190;BME280;51777;53.570;9.984;2023-04-25T08:50:52;100590.22;;;11.03;100.00
65190;BME280;51777;53.570;9.984;2023-04-25T08:53:25;100610.97;;;11.71;100.00
65190;BME280;51777;53.570;9.984;2023-04-25T08:55:54;100604.50;;;11.75;100.00
65190;BME280;51777;53.570;9.984;2023-04-25T08:58:20;100606.50;;;11.21;100.00
65190;BME280;51777;53.570;9.984;2023-04-25T09:00:47;100606.91;;;10.82;100.00
65190;BME280;51777;53.570;9.984;2023-04-25T09:03:13;100628.03;;;12.48;100.00
65190;BME280;51777;53.570;9.984;2023-04-25T09:05:40;100629.03;;;13.04;100.00
65190;BME280;51777;53.570;9.984;2023-04-25T09:08:06;100633.25;;;10.86;100.00
65190;BME280;51777;53.570;9.984;2023-04-25T09:10:32;100622.41;;;10.29;100.00
65190;BME280;51777;53.570;9.984;2023-04-25T09:15:29;100630.78;;;9.58;100.00
65190;BME280;51777;53.570;9.984;2023-04-25T09:17:58;100646.25;;;9.95;100.00
65190;BME280;51777;53.570;9.984;2023-04-25T09:20:24;100645.91;;;9.81;100.00
65190;BME280;51777;53.570;9.984;2023-04-25T09:23:01;100642.31;;;9.91;100.00
65190;BME280;51777;53.570;9.984;2023-04-25T09:25:26;100639.31;;;10.41;100.00
65190;BME280;51777;53.570;9.984;2023-04-25T09:27:53;100650.91;;;11.34;100.00
65190;BME280;51777;53.570;9.984;2023-04-25T09:30:29;100654.66;;;12.00;100.00
65190;BME280;51777;53.570;9.984;2023-04-25T09:33:06;100669.84;;;13.59;100.00
65190;BME280;51777;53.570;9.984;2023-04-25T09:35:43;100681.09;;;14.30;100.00
65190;BME280;51777;53.570;9.984;2023-04-25T09:40:43;100693.50;;;11.66;100.00
65190;BME280;51777;53.570;9.984;2023-04-25T09:43:22;100702.44;;;10.84;100.00
65190;BME280;51777;53.570;9.984;2023-04-25T09:45:53;100682.28;;;10.24;100.00
65190;BME280;51777;53.570;9.984;2023-04-25T09:48:22;100692.00;;;10.76;100.00
65190;BME280;51777;53.570;9.984;2023-04-25T09:51:11;100693.13;;;11.09;100.00
65190;BME280;51777;53.570;9.984;2023-04-25T09:53:40;100689.09;;;11.14;100.00
65190;BME280;51777;53.570;9.984;2023-04-25T09:56:08;100693.09;;;11.53;100.00
65190;BME280;51777;53.570;9.984;2023-04-25T09:58:35;100686.41;;;12.02;100.00
65190;BME280;51777;53.570;9.984;2023-04-25T10:01:10;100687.41;;;13.08;100.00
65190;BME280;51777;53.570;9.984;2023-04-25T10:03:37;100692.44;;;13.18;100.00
65190;BME280;51777;53.570;9.984;2023-04-25T10:06:12;100692.91;;;12.73;100.00
65190;BME280;51777;53.570;9.984;2023-04-25T10:08:39;100690.97;;;12.83;100.00
65190;BME280;51777;53.570;9.984;2023-04-25T10:11:07;100695.13;;;13.73;100.00
65190;BME280;51777;53.570;9.984;2023-04-25T10:13:34;100708.03;;;15.96;100.00
65190;BME280;51777;53.570;9.984;2023-04-25T10:16:01;100721.25;;;16.81;100.00
65190;BME280;51777;53.570;9.984;2023-04-25T10:18:28;100715.34;;;16.36;100.00
65190;BME280;51777;53.570;9.984;2023-04-25T10:20:55;100713.84;;;15.01;100.00
65190;BME280;51777;53.570;9.984;2023-04-25T10:23:21;100720.78;;;14.24;100.00
65190;BME280;51777;53.570;9.984;2023-04-25T10:25:50;100713.22;;;12.93;100.00
65190;BME280;51777;53.570;9.984;2023-04-25T10:28:17;100718.59;;;13.41;100.00
65190;BME280;51777;53.570;9.984;2023-04-25T10:31:07;100728.16;;;16.17;100.00
65190;BME280;51777;53.570;9.984;2023-04-25T10:33:37;100729.63;;;17.47;100.00
65190;BME280;51777;53.570;9.984;2023-04-25T10:36:14;100747.63;;;19.27;100.00
65190;BME280;51777;53.570;9.984;2023-04-25T10:38:42;100747.63;;;19.00;100.00
65190;BME280;51777;53.570;9.984;2023-04-25T10:41:11;100735.69;;;18.17;100.00
65190;BME280;51777;53.570;9.984;2023-04-25T10:43:37;100726.75;;;17.64;100.00
65190;BME280;51777;53.570;9.984;2023-04-25T10:48:44;100735.84;;;17.18;100.00
65190;BME280;51777;53.570;9.984;2023-04-25T10:51:11;100728.00;;;18.02;100.00
65190;BME280;51777;53.570;9.984;2023-04-25T10:53:37;100727.25;;;17.80;100.00
65190;BME280;51777;53.570;9.984;2023-04-25T10:56:22;100719.97;;;15.61;100.00
65190;BME280;51777;53.570;9.984;2023-04-25T10:58:48;100722.72;;;14.30;100.00
65190;BME280;51777;53.570;9.984;2023-04-25T11:01:14;100719.22;;;13.43;100.00
65190;BME280;51777;53.570;9.984;2023-04-25T11:03:41;100721.56;;;12.47;100.00
65190;BME280;51777;53.570;9.984;2023-04-25T11:06:29;100719.47;;;12.08;100.00
65190;BME280;51777;53.570;9.984;2023-04-25T11:09:00;100722.84;;;12.43;100.00
65190;BME280;51777;53.570;9.984;2023-04-25T11:11:26;100726.31;;;12.76;100.00
65190;BME280;51777;53.570;9.984;2023-04-25T11:13:53;100723.44;;;14.16;100.00
65190;BME280;51777;53.570;9.984;2023-04-25T11:16:19;100732.31;;;13.82;100.00
65190;BME280;51777;53.570;9.984;2023-04-25T11:18:44;100729.19;;;13.95;100.00
65190;BME280;51777;53.570;9.984;2023-04-25T11:21:11;100737.69;;;14.90;100.00
65190;BME280;51777;53.570;9.984;2023-04-25T11:23:36;100725.22;;;14.15;100.00
65190;BME280;51777;53.570;9.984;2023-04-25T11:26:05;100732.41;;;14.44;100.00
65190;BME280;51777;53.570;9.984;2023-04-25T11:28:30;100732.38;;;14.98;100.00
65190;BME280;51777;53.570;9.984;2023-04-25T11:30:56;100733.47;;;14.19;100.00
65190;BME280;51777;53.570;9.984;2023-04-25T11:33:25;100745.94;;;13.92;100.00
65190;BME280;51777;53.570;9.984;2023-04-25T11:35:53;100772.91;;;13.10;100.00
65190;BME280;51777;53.570;9.984;2023-04-25T11:38:20;100759.06;;;12.77;100.00
65190;BME280;51777;53.570;9.984;2023-04-25T11:40:50;100762.19;;;12.80;100.00
65190;BME280;51777;53.570;9.984;2023-04-25T11:43:15;100761.88;;;12.33;100.00
65190;BME280;51777;53.570;9.984;2023-04-25T11:45:46;100770.13;;;12.02;100.00
65190;BME280;51777;53.570;9.984;2023-04-25T11:48:12;100769.94;;;12.72;100.00
65190;BME280;51777;53.570;9.984;2023-04-25T11:50:39;100775.16;;;13.94;100.00
65190;BME280;51777;53.570;9.984;2023-04-25T11:53:04;100770.00;;;13.70;100.00
65190;BME280;51777;53.570;9.984;2023-04-25T11:55:31;100781.59;;;14.62;100.00
65190;BME280;51777;53.570;9.984;2023-04-25T11:57:59;100778.91;;;14.39;100.00
65190;BME280;51777;53.570;9.984;2023-04-25T12:00:26;100781.81;;;15.06;100.00
65190;BME280;51777;53.570;9.984;2023-04-25T12:02:56;100783.75;;;16.02;100.00
65190;BME280;51777;53.570;9.984;2023-04-25T12:05:28;100776.66;;;16.62;100.00
65190;BME280;51777;53.570;9.984;2023-04-25T12:07:54;100804.44;;;17.70;100.00
65190;BME280;51777;53.570;9.984;2023-04-25T12:10:20;100791.34;;;17.20;100.00
65190;BME280;51777;53.570;9.984;2023-04-25T12:12:47;100786.81;;;16.06;100.00
65190;BME280;51777;53.570;9.984;2023-04-25T12:17:50;100796.69;;;15.43;100.00
65190;BME280;51777;53.570;9.984;2023-04-25T12:20:17;100794.94;;;14.90;100.00
65190;BME280;51777;53.570;9.984;2023-04-25T12:22:45;100804.41;;;13.96;100.00
65190;BME280;51777;53.570;9.984;2023-04-25T12:25:38;100809.19;;;14.32;100.00
65190;BME280;51777;53.570;9.984;2023-04-25T12:28:18;100802.53;;;14.29;100.00
65190;BME280;51777;53.570;9.984;2023-04-25T12:31:00;100810.53;;;15.58;100.00
65190;BME280;51777;53.570;9.984;2023-04-25T12:33:36;100815.53;;;16.86;100.00
65190;BME280;51777;53.570;9.984;2023-04-25T12:36:03;100812.47;;;17.96;99.77
65190;BME280;51777;53.570;9.984;2023-04-25T12:38:36;100820.44;;;17.81;99.16
65190;BME280;51777;53.570;9.984;2023-04-25T12:41:02;100832.94;;;16.35;100.00
65190;BME280;51777;53.570;9.984;2023-04-25T12:43:27;100827.03;;;16.26;100.00
65190;BME280;51777;53.570;9.984;2023-04-25T12:45:54;100827.50;;;15.17;100.00
65190;BME280;51777;53.570;9.984;2023-04-25T12:48:20;100821.75;;;15.21;100.00
65190;BME280;51777;53.570;9.984;2023-04-25T12:50:46;100824.84;;;14.63;100.00
65190;BME280;51777;53.570;9.984;2023-04-25T12:53:20;100819.59;;;14.24;100.00
65190;BME280;51777;53.570;9.984;2023-04-25T12:55:46;100821.97;;;15.12;100.00
65190;BME280;51777;53.570;9.984;2023-04-25T12:58:12;100840.59;;;14.69;100.00